createdAt,value
2018-09-26T00:01:52.309Z,1.65
2018-09-26T00:04:26.918Z,1.87
2018-09-26T00:06:55.923Z,1.32
2018-09-26T00:09:24.346Z,1.62
2018-09-26T00:11:52.867Z,1.52
2018-09-26T00:14:21.360Z,1.52
2018-09-26T00:16:49.796Z,1.85
2018-09-26T00:19:18.210Z,1.50
2018-09-26T00:21:46.688Z,1.70
2018-09-26T00:24:16.202Z,1.37
2018-09-26T00:26:44.652Z,1.95
2018-09-26T00:29:13.105Z,1.52
2018-09-26T00:31:41.610Z,1.55
2018-09-26T00:34:10.025Z,1.45
2018-09-26T00:36:38.471Z,1.50
2018-09-26T00:39:07.301Z,1.82
2018-09-26T00:41:35.718Z,1.80
2018-09-26T00:44:04.197Z,2.10
2018-09-26T00:46:35.057Z,1.90
2018-09-26T00:49:03.563Z,1.82
2018-09-26T00:51:32.065Z,1.25
2018-09-26T00:54:00.600Z,1.98
2018-09-26T00:56:29.053Z,1.90
2018-09-26T00:58:57.693Z,1.60
2018-09-26T01:01:26.210Z,1.70
2018-09-26T01:03:54.832Z,1.80
2018-09-26T01:06:23.397Z,2.02
2018-09-26T01:08:51.878Z,1.47
2018-09-26T01:11:20.385Z,1.95
2018-09-26T01:13:48.856Z,1.72
2018-09-26T01:16:17.384Z,1.57
2018-09-26T01:18:45.861Z,1.50
2018-09-26T01:21:14.322Z,1.50
2018-09-26T01:23:42.777Z,1.30
2018-09-26T01:26:11.267Z,1.60
2018-09-26T01:28:39.712Z,1.70
2018-09-26T01:31:08.157Z,1.85
2018-09-26T01:33:36.604Z,1.50
2018-09-26T01:36:05.018Z,1.50
2018-09-26T01:38:33.475Z,1.30
2018-09-26T01:41:01.913Z,1.67
2018-09-26T01:43:30.409Z,1.50
2018-09-26T01:45:58.918Z,1.30
2018-09-26T01:48:27.579Z,1.45
2018-09-26T01:50:56.296Z,1.35
2018-09-26T01:53:24.871Z,1.70
2018-09-26T01:55:53.325Z,1.35
2018-09-26T01:58:21.778Z,1.50
2018-09-26T02:00:50.209Z,1.60
2018-09-26T02:03:18.629Z,2.58
2018-09-26T02:05:47.098Z,1.52
2018-09-26T02:08:15.562Z,1.50
2018-09-26T02:10:43.992Z,1.60
2018-09-26T02:13:12.492Z,1.57
2018-09-26T02:15:40.888Z,1.45
2018-09-26T02:18:09.319Z,1.60
2018-09-26T02:20:37.812Z,1.50
2018-09-26T02:23:06.293Z,1.55
2018-09-26T02:25:34.663Z,1.50
2018-09-26T02:28:03.108Z,1.50
2018-09-26T02:30:31.636Z,1.80
2018-09-26T02:33:00.170Z,1.45
2018-09-26T02:35:28.624Z,1.45
2018-09-26T02:37:57.203Z,1.27
2018-09-26T02:40:25.867Z,1.55
2018-09-26T02:42:54.387Z,1.52
2018-09-26T02:45:22.837Z,1.40
2018-09-26T02:47:51.378Z,1.60
2018-09-26T02:50:19.850Z,1.62
2018-09-26T02:52:48.319Z,1.40
2018-09-26T02:55:16.853Z,1.47
2018-09-26T02:57:45.274Z,1.45
2018-09-26T03:00:13.730Z,2.10
2018-09-26T03:02:42.236Z,1.40
2018-09-26T03:05:10.678Z,1.60
2018-09-26T03:07:39.091Z,1.90
2018-09-26T03:10:08.049Z,1.65
2018-09-26T03:12:36.471Z,1.57
2018-09-26T03:15:04.985Z,1.32
2018-09-26T03:17:33.461Z,1.20
2018-09-26T03:20:01.940Z,1.80
2018-09-26T03:22:30.367Z,2.02
2018-09-26T03:24:58.904Z,1.45
2018-09-26T03:27:27.807Z,1.47
2018-09-26T03:29:56.355Z,1.82
2018-09-26T03:32:24.909Z,1.45
2018-09-26T03:34:53.442Z,1.30
2018-09-26T03:37:21.905Z,1.75
2018-09-26T03:39:50.382Z,1.35
2018-09-26T03:42:18.822Z,1.60
2018-09-26T03:44:47.200Z,1.70
2018-09-26T03:47:15.705Z,1.40
2018-09-26T03:49:44.181Z,1.70
2018-09-26T03:52:12.729Z,1.70
2018-09-26T03:54:41.225Z,2.30
2018-09-26T03:57:09.708Z,2.20
2018-09-26T03:59:38.189Z,1.90
2018-09-26T04:02:06.708Z,1.80
2018-09-26T04:04:35.118Z,1.75
2018-09-26T04:07:03.545Z,1.92
2018-09-26T04:09:32.120Z,1.60
2018-09-26T04:12:00.827Z,1.55
2018-09-26T04:14:29.852Z,1.40
2018-09-26T04:16:58.513Z,1.60
2018-09-26T04:19:28.027Z,1.57
2018-09-26T04:21:57.111Z,1.60
2018-09-26T04:24:25.675Z,2.12
2018-09-26T04:26:55.007Z,1.87
2018-09-26T04:29:23.531Z,2.50
2018-09-26T04:31:51.968Z,2.33
2018-09-26T04:34:20.430Z,2.02
2018-09-26T04:36:48.924Z,2.25
2018-09-26T04:39:17.348Z,2.25
2018-09-26T04:41:45.816Z,1.82
2018-09-26T04:44:14.268Z,2.00
2018-09-26T04:46:42.694Z,1.57
2018-09-26T04:49:11.303Z,2.00
2018-09-26T04:51:39.726Z,1.80
2018-09-26T04:54:08.249Z,1.70
2018-09-26T04:56:36.696Z,1.95
2018-09-26T04:59:05.156Z,1.85
2018-09-26T05:01:33.636Z,1.70
2018-09-26T05:04:02.096Z,2.02
2018-09-26T05:06:30.589Z,2.12
2018-09-26T05:08:59.086Z,1.70
2018-09-26T05:11:27.606Z,2.40
2018-09-26T05:13:56.251Z,1.57
2018-09-26T05:16:24.825Z,3.00
2018-09-26T05:18:53.461Z,1.70
2018-09-26T05:21:21.906Z,2.02
2018-09-26T05:23:50.339Z,1.80
2018-09-26T05:26:18.896Z,2.42
2018-09-26T05:28:47.455Z,2.00
2018-09-26T05:31:15.992Z,2.15
2018-09-26T05:33:44.472Z,1.92
2018-09-26T05:36:12.992Z,1.90
2018-09-26T05:38:41.472Z,1.80
2018-09-26T05:41:09.940Z,1.42
2018-09-26T05:43:38.440Z,1.90
2018-09-26T05:46:07.473Z,2.10
2018-09-26T05:48:36.289Z,1.80
2018-09-26T05:51:04.796Z,2.58
2018-09-26T05:53:34.045Z,2.45
2018-09-26T05:56:02.526Z,2.10
2018-09-26T05:58:30.994Z,2.75
2018-09-26T06:00:59.613Z,1.72
2018-09-26T06:03:28.077Z,2.00
2018-09-26T06:05:56.660Z,2.05
2018-09-26T06:08:25.165Z,2.00
2018-09-26T06:10:53.675Z,2.52
2018-09-26T06:13:22.069Z,1.77
2018-09-26T06:15:50.589Z,1.90
2018-09-26T06:18:19.012Z,2.00
2018-09-26T06:20:47.548Z,2.22
2018-09-26T06:23:16.007Z,1.85
2018-09-26T06:25:44.512Z,2.67
2018-09-26T06:28:13.006Z,2.15
2018-09-26T06:30:41.466Z,2.62
2018-09-26T06:33:10.061Z,2.35
2018-09-26T06:35:38.632Z,1.98
2018-09-26T06:38:07.045Z,1.82
2018-09-26T06:40:35.691Z,3.37
2018-09-26T06:43:04.102Z,2.30
2018-09-26T06:45:32.553Z,2.83
2018-09-26T06:48:01.035Z,2.60
2018-09-26T06:50:29.574Z,2.52
2018-09-26T06:52:58.021Z,2.30
2018-09-26T06:55:26.541Z,2.10
2018-09-26T06:57:55.301Z,2.00
2018-09-26T07:00:24.755Z,3.08
2018-09-26T07:02:53.840Z,2.25
2018-09-26T07:05:22.364Z,4.65
2018-09-26T07:07:50.935Z,2.47
2018-09-26T07:10:19.463Z,3.12
2018-09-26T07:12:47.886Z,2.67
2018-09-26T07:15:16.334Z,2.60
2018-09-26T07:17:44.750Z,2.87
2018-09-26T07:20:13.196Z,2.30
2018-09-26T07:22:41.756Z,2.55
2018-09-26T07:25:10.257Z,2.60
2018-09-26T07:27:38.732Z,2.55
2018-09-26T07:30:07.468Z,2.65
2018-09-26T07:32:35.893Z,2.45
2018-09-26T07:35:04.419Z,2.10
2018-09-26T07:37:33.319Z,2.83
2018-09-26T07:40:01.805Z,3.10
2018-09-26T07:42:30.260Z,3.13
2018-09-26T07:45:00.171Z,4.05
2018-09-26T07:47:28.742Z,4.50
2018-09-26T07:49:57.595Z,4.12
2018-09-26T07:52:26.187Z,3.70
2018-09-26T07:54:54.760Z,3.47
2018-09-26T07:57:23.342Z,4.27
2018-09-26T07:59:51.822Z,4.50
2018-09-26T08:02:20.362Z,3.53
2018-09-26T08:04:48.940Z,3.77
2018-09-26T08:07:17.455Z,3.23
2018-09-26T08:09:45.937Z,3.60
2018-09-26T08:12:14.440Z,3.00
2018-09-26T08:14:42.993Z,3.37
2018-09-26T08:17:11.504Z,4.87
2018-09-26T08:19:40.249Z,4.07
2018-09-26T08:22:08.756Z,3.97
2018-09-26T08:24:37.200Z,3.73
2018-09-26T08:27:05.726Z,3.70
2018-09-26T08:29:34.233Z,3.73
2018-09-26T08:32:02.767Z,3.57
2018-09-26T08:34:31.352Z,4.10
2018-09-26T08:36:59.796Z,4.70
2018-09-26T08:39:31.464Z,4.93
2018-09-26T08:42:00.019Z,3.60
2018-09-26T08:44:28.708Z,4.30
2018-09-26T08:46:57.254Z,4.87
2018-09-26T08:49:26.051Z,4.40
2018-09-26T08:51:54.617Z,5.03
2018-09-26T08:54:23.072Z,4.73
2018-09-26T08:56:51.650Z,3.83
2018-09-26T08:59:20.223Z,3.57
2018-09-26T09:01:49.158Z,4.50
2018-09-26T09:04:18.577Z,3.90
2018-09-26T09:06:47.398Z,4.47
2018-09-26T09:09:15.946Z,3.20
2018-09-26T09:11:44.523Z,3.00
2018-09-26T09:14:12.966Z,3.50
2018-09-26T09:16:41.409Z,3.40
2018-09-26T09:19:09.858Z,3.00
2018-09-26T09:21:38.343Z,3.10
2018-09-26T09:24:06.848Z,3.07
2018-09-26T09:26:40.577Z,3.37
2018-09-26T09:29:09.073Z,3.10
2018-09-26T09:31:37.500Z,3.20
2018-09-26T09:34:06.074Z,2.83
2018-09-26T09:36:34.549Z,2.70
2018-09-26T09:39:03.089Z,2.77
2018-09-26T09:41:31.555Z,1.80
2018-09-26T09:44:00.055Z,1.70
2018-09-26T09:46:28.615Z,2.80
2018-09-26T09:48:57.213Z,2.00
2018-09-26T09:51:25.821Z,2.23
2018-09-26T09:53:54.356Z,2.20
2018-09-26T09:56:22.979Z,3.63
2018-09-26T09:58:51.372Z,2.27
2018-09-26T10:01:25.097Z,3.40
2018-09-26T10:03:53.574Z,2.73
2018-09-26T10:06:22.097Z,1.97
2018-09-26T10:08:50.706Z,2.00
2018-09-26T10:11:19.144Z,2.07
2018-09-26T10:13:47.562Z,3.30
2018-09-26T10:16:16.039Z,2.30
2018-09-26T10:18:45.008Z,2.63
2018-09-26T10:21:13.823Z,2.40
2018-09-26T10:23:42.248Z,3.00
2018-09-26T10:26:11.148Z,5.43
2018-09-26T10:28:39.953Z,3.30
2018-09-26T10:31:08.548Z,4.37
2018-09-26T10:33:36.982Z,3.23
2018-09-26T10:36:05.510Z,3.20
2018-09-26T10:38:33.926Z,3.43
2018-09-26T10:41:02.451Z,2.60
2018-09-26T10:43:33.318Z,2.27
2018-09-26T10:46:02.041Z,2.50
2018-09-26T10:48:30.569Z,2.43
2018-09-26T10:50:59.078Z,2.53
2018-09-26T10:53:27.526Z,2.80
2018-09-26T10:55:56.094Z,3.10
2018-09-26T10:58:25.076Z,3.53
2018-09-26T11:00:53.550Z,2.90
2018-09-26T11:03:22.001Z,3.20
2018-09-26T11:05:50.464Z,3.40
2018-09-26T11:08:18.960Z,2.40
2018-09-26T11:10:47.466Z,2.97
2018-09-26T11:13:15.944Z,2.63
2018-09-26T11:15:44.647Z,2.70
2018-09-26T11:18:13.185Z,2.70
2018-09-26T11:20:41.614Z,2.93
2018-09-26T11:23:10.049Z,3.00
2018-09-26T11:25:38.998Z,3.40
2018-09-26T11:28:07.464Z,2.80
2018-09-26T11:30:35.986Z,3.07
2018-09-26T11:33:04.724Z,2.50
2018-09-26T11:35:33.333Z,3.20
2018-09-26T11:38:01.828Z,3.17
2018-09-26T11:40:31.032Z,3.50
2018-09-26T11:42:59.517Z,2.70
2018-09-26T11:45:28.097Z,3.07
2018-09-26T11:47:56.689Z,2.80
2018-09-26T11:50:25.514Z,3.07
2018-09-26T11:52:53.985Z,3.00
2018-09-26T11:55:22.500Z,2.73
2018-09-26T11:57:50.917Z,2.53
2018-09-26T12:00:19.420Z,2.13
2018-09-26T12:02:48.374Z,2.93
2018-09-26T12:05:16.881Z,2.70
2018-09-26T12:07:45.321Z,3.37
2018-09-26T12:10:14.334Z,3.73
2018-09-26T12:12:43.258Z,3.50
2018-09-26T12:15:12.204Z,3.47
2018-09-26T12:17:40.742Z,3.43
2018-09-26T12:20:09.260Z,4.27
2018-09-26T12:22:37.946Z,4.50
2018-09-26T12:25:06.418Z,5.07
2018-09-26T12:27:34.868Z,3.60
2018-09-26T12:30:03.423Z,3.50
2018-09-26T12:32:31.849Z,4.23
2018-09-26T12:35:00.364Z,3.47
2018-09-26T12:37:28.893Z,3.10
2018-09-26T12:39:57.355Z,3.63
2018-09-26T12:42:25.959Z,3.97
2018-09-26T12:44:54.360Z,3.60
2018-09-26T12:47:23.516Z,5.00
2018-09-26T12:49:51.993Z,3.50
2018-09-26T12:52:20.526Z,4.13
2018-09-26T12:54:48.997Z,3.70
2018-09-26T12:57:17.526Z,3.90
2018-09-26T12:59:46.006Z,3.37
2018-09-26T13:02:14.508Z,3.60
2018-09-26T13:04:42.880Z,3.63
2018-09-26T13:07:11.503Z,3.70
2018-09-26T13:09:39.961Z,3.97
2018-09-26T13:12:08.496Z,3.60
2018-09-26T13:14:37.013Z,2.80
2018-09-26T13:17:05.468Z,3.13
2018-09-26T13:19:33.964Z,3.37
2018-09-26T13:22:02.845Z,2.77
2018-09-26T13:24:31.487Z,2.90
2018-09-26T13:26:59.922Z,4.10
2018-09-26T13:29:31.284Z,3.00
2018-09-26T13:31:59.999Z,2.93
2018-09-26T13:34:29.123Z,2.63
2018-09-26T13:36:58.472Z,3.00
2018-09-26T13:39:27.045Z,3.13
2018-09-26T13:41:55.866Z,3.73
2018-09-26T13:44:24.716Z,3.47
2018-09-26T13:46:53.170Z,3.40
2018-09-26T13:49:21.607Z,3.60
2018-09-26T13:51:50.102Z,3.27
2018-09-26T13:54:18.504Z,3.00
2018-09-26T13:56:46.962Z,3.50
2018-09-26T13:59:15.554Z,3.50
2018-09-26T14:01:44.647Z,3.20
2018-09-26T14:04:13.124Z,2.20
2018-09-26T14:06:41.615Z,3.23
2018-09-26T14:09:10.195Z,2.83
2018-09-26T14:11:38.709Z,3.20
2018-09-26T14:14:07.213Z,2.40
2018-09-26T14:16:36.489Z,2.67
2018-09-26T14:19:05.061Z,2.80
2018-09-26T14:21:35.266Z,3.03
2018-09-26T14:24:04.040Z,2.13
2018-09-26T14:26:32.509Z,2.50
2018-09-26T14:29:01.145Z,3.20
2018-09-26T14:31:30.173Z,2.80
2018-09-26T14:33:59.812Z,2.90
2018-09-26T14:36:29.433Z,2.60
2018-09-26T14:38:58.686Z,2.80
2018-09-26T14:41:27.967Z,3.10
2018-09-26T14:43:56.859Z,2.93
2018-09-26T14:46:25.474Z,2.57
2018-09-26T14:48:53.932Z,3.00
2018-09-26T14:51:22.532Z,3.00
2018-09-26T14:53:51.001Z,2.90
2018-09-26T14:56:19.762Z,3.07
2018-09-26T14:58:48.666Z,2.37
2018-09-26T15:01:17.186Z,2.23
2018-09-26T15:03:46.744Z,2.60
2018-09-26T15:06:15.266Z,2.70
2018-09-26T15:08:43.781Z,2.33
2018-09-26T15:11:12.273Z,2.33
2018-09-26T15:13:40.778Z,2.57
2018-09-26T15:16:09.266Z,2.50
2018-09-26T15:18:40.280Z,3.07
2018-09-26T15:21:08.759Z,2.40
2018-09-26T15:23:37.354Z,2.60
2018-09-26T15:26:05.938Z,3.07
2018-09-26T15:28:34.639Z,2.40
2018-09-26T15:33:47.349Z,2.40
2018-09-26T15:36:15.998Z,2.50
2018-09-26T15:38:44.717Z,2.70
2018-09-26T15:41:13.353Z,2.33
2018-09-26T15:43:41.794Z,2.47
2018-09-26T15:46:10.248Z,2.53
2018-09-26T15:48:39.178Z,2.70
2018-09-26T15:51:07.790Z,3.50
2018-09-26T15:53:36.487Z,2.37
2018-09-26T15:56:05.139Z,2.50
2018-09-26T15:58:33.624Z,2.70
2018-09-26T16:01:02.186Z,2.80
2018-09-26T16:03:31.561Z,2.70
2018-09-26T16:06:00.639Z,3.60
2018-09-26T16:08:29.341Z,2.10
2018-09-26T16:10:58.198Z,2.50
2018-09-26T16:13:27.545Z,2.50
2018-09-26T16:15:56.362Z,2.17
2018-09-26T16:18:25.033Z,2.13
2018-09-26T16:20:53.610Z,1.83
2018-09-26T16:23:22.250Z,1.90
2018-09-26T16:26:42.436Z,1.67
2018-09-26T16:29:55.810Z,1.80
2018-09-26T16:32:26.182Z,1.70
2018-09-26T16:35:06.423Z,2.00
2018-09-26T16:37:36.673Z,2.20
2018-09-26T16:40:06.394Z,2.00
2018-09-26T16:42:34.944Z,1.70
2018-09-26T16:45:03.928Z,2.10
2018-09-26T16:47:32.940Z,2.70
2018-09-26T16:50:01.491Z,2.33
2018-09-26T16:52:30.021Z,3.17
2018-09-26T16:54:58.693Z,2.50
2018-09-26T16:57:27.490Z,2.97
2018-09-26T16:59:56.162Z,2.80
2018-09-26T17:02:24.900Z,2.83
2018-09-26T17:04:53.239Z,3.80
2018-09-26T17:07:21.782Z,4.00
2018-09-26T17:09:50.256Z,3.60
2018-09-26T17:12:18.725Z,3.70
2018-09-26T17:14:47.216Z,3.30
2018-09-26T17:17:15.771Z,3.07
2018-09-26T17:19:44.166Z,2.60
2018-09-26T17:22:12.649Z,4.30
2018-09-26T17:24:41.168Z,3.50
2018-09-26T17:27:09.973Z,4.00
2018-09-26T17:29:38.614Z,3.57
2018-09-26T17:32:07.222Z,3.10
2018-09-26T17:34:35.743Z,3.10
2018-09-26T17:37:04.364Z,3.30
2018-09-26T17:39:32.926Z,2.93
2018-09-26T17:42:01.485Z,3.40
2018-09-26T17:44:30.132Z,3.70
2018-09-26T17:46:59.760Z,3.80
2018-09-26T17:49:28.341Z,3.70
2018-09-26T17:51:57.131Z,3.80
2018-09-26T17:54:25.892Z,3.43
2018-09-26T17:56:54.443Z,3.20
2018-09-26T17:59:22.961Z,3.43
2018-09-26T18:01:51.753Z,5.00
2018-09-26T18:04:20.331Z,3.53
2018-09-26T18:06:48.732Z,3.70
2018-09-26T18:09:17.274Z,3.10
2018-09-26T18:11:45.822Z,3.37
2018-09-26T18:14:14.265Z,2.70
2018-09-26T18:16:42.809Z,3.00
2018-09-26T18:19:11.420Z,2.77
2018-09-26T18:21:40.016Z,2.30
2018-09-26T18:24:08.599Z,2.50
2018-09-26T18:26:37.062Z,2.97
2018-09-26T18:29:05.631Z,2.83
2018-09-26T18:31:34.063Z,3.63
2018-09-26T18:34:02.617Z,2.83
2018-09-26T18:36:31.188Z,1.97
2018-09-26T18:39:00.164Z,2.80
2018-09-26T18:41:28.774Z,2.70
2018-09-26T18:43:57.555Z,2.37
2018-09-26T18:46:26.230Z,2.40
2018-09-26T18:48:54.916Z,2.83
2018-09-26T18:51:23.370Z,2.20
2018-09-26T18:53:51.881Z,2.37
2018-09-26T18:56:21.541Z,2.23
2018-09-26T18:58:50.096Z,2.10
2018-09-26T19:01:18.629Z,2.13
2018-09-26T19:03:47.109Z,2.03
2018-09-26T19:06:15.598Z,3.50
2018-09-26T19:08:44.132Z,3.97
2018-09-26T19:11:13.222Z,4.90
2018-09-26T19:13:41.938Z,5.40
2018-09-26T19:16:10.853Z,5.37
2018-09-26T19:18:39.305Z,5.40
2018-09-26T19:21:07.794Z,5.27
2018-09-26T19:23:36.337Z,4.90
2018-09-26T19:26:04.904Z,4.33
2018-09-26T19:28:33.576Z,5.23
2018-09-26T19:31:02.102Z,3.80
2018-09-26T19:33:31.966Z,3.87
2018-09-26T19:36:00.661Z,3.73
2018-09-26T19:38:29.339Z,4.07
2018-09-26T19:40:57.880Z,3.80
2018-09-26T19:43:26.633Z,3.77
2018-09-26T19:45:55.348Z,3.37
2018-09-26T19:48:24.018Z,3.70
2018-09-26T19:50:52.567Z,3.40
2018-09-26T19:53:21.164Z,3.60
2018-09-26T19:55:49.641Z,2.70
2018-09-26T19:58:18.372Z,3.53
2018-09-26T20:00:46.780Z,3.23
2018-09-26T20:03:15.275Z,2.80
2018-09-26T20:05:43.818Z,2.27
2018-09-26T20:08:12.312Z,2.80
2018-09-26T20:10:40.901Z,2.43
2018-09-26T20:13:09.483Z,2.40
2018-09-26T20:15:38.041Z,2.40
2018-09-26T20:18:06.664Z,2.33
2018-09-26T20:20:35.625Z,3.13
2018-09-26T20:23:04.520Z,2.30
2018-09-26T20:25:33.163Z,2.10
2018-09-26T20:28:01.704Z,1.70
2018-09-26T20:30:30.217Z,1.90
2018-09-26T20:32:58.924Z,1.73
2018-09-26T20:35:27.579Z,2.40
2018-09-26T20:37:56.370Z,2.53
2018-09-26T20:40:25.164Z,2.00
2018-09-26T20:42:53.849Z,2.33
2018-09-26T20:45:22.474Z,2.20
2018-09-26T20:47:55.777Z,2.37
2018-09-26T20:50:24.486Z,2.23
2018-09-26T20:52:53.195Z,1.90
2018-09-26T20:58:00.295Z,1.87
2018-09-26T21:00:32.533Z,2.00
2018-09-26T21:03:01.162Z,2.63
2018-09-26T21:05:30.533Z,2.00
2018-09-26T21:08:00.031Z,1.90
2018-09-26T21:10:29.654Z,2.42
2018-09-26T21:12:59.071Z,2.50
2018-09-26T21:15:28.972Z,2.03
2018-09-26T21:17:58.217Z,2.60
2018-09-26T21:20:31.080Z,2.40
2018-09-26T21:23:00.652Z,2.10
2018-09-26T21:25:29.580Z,2.20
2018-09-26T21:27:58.325Z,1.97
2018-09-26T21:30:27.384Z,3.70
2018-09-26T21:32:56.811Z,2.00
2018-09-26T21:35:25.703Z,1.90
2018-09-26T21:37:54.601Z,2.03
2018-09-26T21:40:23.465Z,1.92
2018-09-26T21:42:51.956Z,1.60
2018-09-26T21:45:20.605Z,2.40
2018-09-26T21:47:49.185Z,1.67
2018-09-26T21:50:17.865Z,2.40
2018-09-26T21:52:46.614Z,1.92
2018-09-26T21:55:15.249Z,2.63
2018-09-26T21:57:43.859Z,2.27
2018-09-26T22:00:12.492Z,2.10
2018-09-26T22:02:41.082Z,1.77
2018-09-26T22:05:09.690Z,2.05
2018-09-26T22:07:38.431Z,2.10
2018-09-26T22:10:07.160Z,2.00
2018-09-26T22:12:35.648Z,2.00
2018-09-26T22:15:04.352Z,1.90
2018-09-26T22:17:33.000Z,2.33
2018-09-26T22:20:02.083Z,2.35
2018-09-26T22:22:30.764Z,2.15
2018-09-26T22:24:59.581Z,1.90
2018-09-26T22:27:28.316Z,2.10
2018-09-26T22:29:56.858Z,1.95
2018-09-26T22:32:25.991Z,2.22
2018-09-26T22:34:54.628Z,2.10
2018-09-26T22:37:23.439Z,1.67
2018-09-26T22:39:52.097Z,2.00
2018-09-26T22:42:20.848Z,2.33
2018-09-26T22:44:49.597Z,4.65
2018-09-26T22:47:18.093Z,3.65
2018-09-26T22:49:46.708Z,2.42
2018-09-26T22:52:15.233Z,2.70
2018-09-26T22:54:43.961Z,2.23
2018-09-26T22:57:12.495Z,2.00
2018-09-26T22:59:40.956Z,2.50
2018-09-26T23:02:09.459Z,2.00
2018-09-26T23:04:38.059Z,2.03
2018-09-26T23:07:06.535Z,2.10
2018-09-26T23:09:34.985Z,2.40
2018-09-26T23:12:03.548Z,2.23
2018-09-26T23:14:32.028Z,1.90
2018-09-26T23:17:00.685Z,2.17
2018-09-26T23:19:29.448Z,2.60
2018-09-26T23:21:58.418Z,1.65
2018-09-26T23:24:27.198Z,2.20
2018-09-26T23:26:55.985Z,2.20
2018-09-26T23:29:24.842Z,2.55
2018-09-26T23:31:53.323Z,1.95
2018-09-26T23:34:21.807Z,2.00
2018-09-26T23:36:50.229Z,2.22
2018-09-26T23:39:18.749Z,2.05
2018-09-26T23:41:47.229Z,2.30
2018-09-26T23:44:15.762Z,2.30
2018-09-26T23:46:44.233Z,2.12
2018-09-26T23:49:12.658Z,2.00
2018-09-26T23:51:41.245Z,1.82
2018-09-26T23:54:09.957Z,2.05
2018-09-26T23:56:38.464Z,2.25
2018-09-26T23:59:07.143Z,2.10
